This is the latest recevied weather packets stored in our database for station/object DG8SF-13. If no packets are shown the sender has not sent any weather packets the latest 10 day(s).
| Time | Temp. | Humidity | Pressure | Rain* | Wind** | Luminosity | Snow |
|---|---|---|---|---|---|---|---|
| 1788010057 | 24.44° C | 51% | 1015.3 hPa | 0 mm | - | - | - |
| 1788009746 | 25° C | 51% | 1015.3 hPa | 0 mm | - | - | - |
| 1788009422 | 25.56° C | 48% | 1015.2 hPa | 0 mm | - | - | - |
| 1788009110 | 25.56° C | 48% | 1015.2 hPa | 0 mm | - | - | - |
| 1788008801 | 25.56° C | 49% | 1015.2 hPa | 0 mm | - | - | - |
| 1788008485 | 26.11° C | 43% | 1015.3 hPa | 0 mm | - | - | - |
| 1788008174 | 25.56° C | 48% | 1015.4 hPa | 0 mm | - | - | - |
| 1788007862 | 24.44° C | 47% | 1015.5 hPa | 0 mm | - | - | - |
| 1788007526 | 25° C | 49% | 1015.5 hPa | 0 mm | - | - | - |
| 1788007190 | 24.44° C | 48% | 1015.5 hPa | 0 mm | - | - | - |
| 1788006866 | 25° C | 50% | 1015.5 hPa | 0 mm | - | - | - |
| 1788006553 | 25° C | 49% | 1015.6 hPa | 0 mm | - | - | - |
| 1788006244 | 25° C | 47% | 1015.6 hPa | 0 mm | - | - | - |
| 1788005930 | 24.44° C | 49% | 1015.7 hPa | 0 mm | - | - | - |
| 1788005609 | 25° C | 50% | 1015.7 hPa | 0 mm | - | - | - |
| 1788005293 | 24.44° C | 49% | 1015.9 hPa | 0 mm | - | - | - |
| 1788004988 | 24.44° C | 51% | 1015.9 hPa | 0 mm | - | - | - |
| 1788004670 | 24.44° C | 50% | 1015.9 hPa | 0 mm | - | - | - |
| 1788004336 | 23.89° C | 54% | 1016 hPa | 0 mm | - | - | - |
| 1788004022 | 24.44° C | 54% | 1015.9 hPa | 0 mm | - | - | - |
| 1788003711 | 24.44° C | 51% | 1015.9 hPa | 0 mm | - | - | - |
| 1788003397 | 24.44° C | 53% | 1016 hPa | 0 mm | - | - | - |
| 1788003089 | 24.44° C | 52% | 1016.1 hPa | 0 mm | - | - | - |
| 1788002750 | 24.44° C | 53% | 1016 hPa | 0 mm | - | - | - |
| 1788002438 | 24.44° C | 57% | 1016.2 hPa | 0 mm | - | - | - |
* Rain latest hour (hover to see other rain measurements)
** Current wind speed in m/s (hover to see current wind gust speed)